Time;durP1;ratioP1;P1;durP2;ratioP2;P2;SDS_P1;SDS_P2;PMS_P1;PMS_P2;Temp;Humidity;BMP_temperature;BMP_pressure;BME280_temperature;BME280_humidity;BME280_pressure;Samples;Min_cycle;Max_cycle;Signal;HPM_P1;HPM_P2
2022/08/15 00:02:11;;;;;;;2.25;1.98;;;;;;;;;;6205765;28;20085;-70
2022/08/15 00:05:18;;;;;;;2.97;2.00;;;;;;;;;;6205448;28;20054;-71
2022/08/15 00:08:20;;;;;;;2.58;1.92;;;;;;;;;;6205893;28;20333;-71
2022/08/15 00:11:24;;;;;;;5.63;1.90;;;;;;;;;;6205969;28;20055;-71
2022/08/15 00:14:29;;;;;;;2.88;2.00;;;;;;;;;;6206663;28;20113;-71
2022/08/15 00:17:31;;;;;;;3.60;1.85;;;;;;;;;;6205232;28;20042;-70
2022/08/15 00:20:37;;;;;;;4.07;1.95;;;;;;;;;;6205686;28;20090;-71
2022/08/15 00:23:40;;;;;;;3.55;2.03;;;;;;;;;;6204950;28;20081;-71
2022/08/15 00:26:42;;;;;;;3.92;1.70;;;;;;;;;;6205895;28;20121;-69
2022/08/15 00:29:44;;;;;;;6.82;2.10;;;;;;;;;;6205370;28;20054;-68
2022/08/15 00:32:55;;;;;;;3.10;1.65;;;;;;;;;;6204769;28;20046;-69
2022/08/15 00:35:58;;;;;;;2.92;1.67;;;;;;;;;;6206431;28;20097;-72
2022/08/15 00:39:01;;;;;;;2.47;1.88;;;;;;;;;;6208173;28;20046;-69
2022/08/15 00:42:05;;;;;;;3.75;1.80;;;;;;;;;;6209550;28;20398;-69
2022/08/15 00:45:08;;;;;;;4.88;1.92;;;;;;;;;;6209603;28;20220;-68
2022/08/15 00:51:33;;;;;;;2.33;1.73;;;;;;;;;;6209698;28;20053;-69
2022/08/15 00:54:37;;;;;;;2.80;1.95;;;;;;;;;;6210501;28;20058;-69
2022/08/15 00:57:43;;;;;;;3.03;2.08;;;;;;;;;;6208529;28;20080;-69
2022/08/15 01:00:47;;;;;;;2.42;1.60;;;;;;;;;;6206349;28;20288;-69
2022/08/15 01:03:50;;;;;;;3.58;1.35;;;;;;;;;;6207533;28;20042;-68
2022/08/15 01:06:57;;;;;;;1.75;1.58;;;;;;;;;;6209456;28;20104;-70
2022/08/15 01:09:58;;;;;;;3.97;1.65;;;;;;;;;;6209616;28;20345;-68
2022/08/15 01:13:00;;;;;;;2.75;1.63;;;;;;;;;;6201671;28;20050;-69
2022/08/15 01:16:02;;;;;;;1.67;1.45;;;;;;;;;;6205966;28;20328;-68
2022/08/15 01:19:06;;;;;;;1.83;1.58;;;;;;;;;;6204235;28;20062;-68
2022/08/15 01:22:25;;;;;;;2.65;1.63;;;;;;;;;;6204239;28;20104;-68
2022/08/15 01:25:31;;;;;;;2.65;1.50;;;;;;;;;;6203445;28;20355;-68
2022/08/15 01:28:35;;;;;;;2.58;1.55;;;;;;;;;;6203582;28;20050;-70
2022/08/15 01:31:37;;;;;;;2.47;1.42;;;;;;;;;;6203505;28;20058;-71
2022/08/15 01:34:39;;;;;;;3.13;1.80;;;;;;;;;;6203064;28;20105;-72
2022/08/15 01:37:42;;;;;;;2.38;1.63;;;;;;;;;;6206012;28;20054;-65
2022/08/15 01:40:47;;;;;;;;;;;;;;;;;;6206114;28;20248;-69
2022/08/15 01:43:52;;;;;;;2.20;1.40;;;;;;;;;;6204729;28;20204;-67
2022/08/15 01:47:00;;;;;;;2.05;1.27;;;;;;;;;;6202438;28;20085;-68
2022/08/15 01:50:08;;;;;;;2.38;1.58;;;;;;;;;;6203527;28;20065;-67
2022/08/15 01:53:20;;;;;;;4.90;1.42;;;;;;;;;;6204014;28;20054;-67
2022/08/15 01:56:27;;;;;;;3.10;1.50;;;;;;;;;;6200005;28;20066;-68
2022/08/15 01:59:28;;;;;;;1.40;1.30;;;;;;;;;;6200998;28;20225;-70
2022/08/15 02:02:30;;;;;;;1.58;1.35;;;;;;;;;;6203883;28;20046;-68
2022/08/15 02:05:31;;;;;;;2.20;1.67;;;;;;;;;;6202924;28;20054;-68
2022/08/15 02:08:33;;;;;;;2.17;1.40;;;;;;;;;;6204200;28;20341;-68
2022/08/15 02:11:36;;;;;;;1.80;1.60;;;;;;;;;;6205317;28;20050;-68
2022/08/15 02:14:41;;;;;;;;;;;;;;;;;;6203581;28;20054;-68
2022/08/15 02:17:43;;;;;;;1.98;1.70;;;;;;;;;;6203901;28;19930;-68
2022/08/15 02:20:45;;;;;;;2.30;1.55;;;;;;;;;;6204008;28;20100;-67
2022/08/15 02:23:46;;;;;;;1.70;1.45;;;;;;;;;;6203333;28;20054;-70
2022/08/15 02:26:50;;;;;;;2.00;1.55;;;;;;;;;;6203001;28;20202;-67
2022/08/15 02:29:52;;;;;;;2.90;1.45;;;;;;;;;;6201605;28;20046;-67
2022/08/15 02:32:54;;;;;;;1.92;1.52;;;;;;;;;;6204577;28;20241;-67
2022/08/15 02:35:55;;;;;;;2.70;1.90;;;;;;;;;;6204129;28;20065;-69
2022/08/15 02:38:58;;;;;;;3.08;1.50;;;;;;;;;;6202301;28;20392;-69
2022/08/15 02:42:01;;;;;;;3.80;1.83;;;;;;;;;;6207943;28;20053;-69
2022/08/15 02:45:04;;;;;;;3.28;1.73;;;;;;;;;;6209580;28;20050;-69
2022/08/15 02:48:06;;;;;;;2.45;1.50;;;;;;;;;;6207409;28;20120;-70
2022/08/15 02:51:09;;;;;;;1.42;1.30;;;;;;;;;;6210347;28;20101;-68
2022/08/15 02:54:11;;;;;;;2.17;1.45;;;;;;;;;;6208421;28;20420;-67
2022/08/15 02:57:15;;;;;;;4.20;1.73;;;;;;;;;;6209213;28;20058;-68
2022/08/15 03:00:17;;;;;;;1.90;1.60;;;;;;;;;;6202731;28;20055;-68
2022/08/15 03:03:19;;;;;;;2.63;1.57;;;;;;;;;;6208660;28;20558;-68
2022/08/15 03:06:24;;;;;;;2.63;1.30;;;;;;;;;;6210449;28;20101;-68
2022/08/15 03:09:26;;;;;;;4.65;1.50;;;;;;;;;;6207302;28;20337;-68
2022/08/15 03:12:29;;;;;;;1.92;1.60;;;;;;;;;;6206502;28;20058;-68
2022/08/15 03:15:39;;;;;;;2.63;1.27;;;;;;;;;;6207376;28;20046;-68
2022/08/15 03:18:42;;;;;;;3.47;1.42;;;;;;;;;;6209047;28;20050;-68
2022/08/15 03:21:44;;;;;;;1.83;1.65;;;;;;;;;;6205618;28;20068;-67
2022/08/15 03:24:45;;;;;;;1.85;1.45;;;;;;;;;;6209016;28;20046;-68
2022/08/15 03:27:48;;;;;;;3.08;1.65;;;;;;;;;;6205473;28;20340;-68
2022/08/15 03:30:50;;;;;;;2.42;1.42;;;;;;;;;;6205797;28;20097;-68
2022/08/15 03:33:52;;;;;;;3.58;1.80;;;;;;;;;;6208162;28;20233;-68
2022/08/15 03:36:53;;;;;;;1.88;1.30;;;;;;;;;;6207163;28;20058;-68
2022/08/15 03:39:56;;;;;;;2.17;1.70;;;;;;;;;;6206450;28;20050;-68
2022/08/15 03:43:03;;;;;;;2.45;1.60;;;;;;;;;;6205498;28;20062;-68
2022/08/15 03:46:07;;;;;;;1.58;1.48;;;;;;;;;;6207627;28;20109;-70
2022/08/15 03:49:10;;;;;;;3.75;1.70;;;;;;;;;;6206576;28;20101;-67
2022/08/15 03:52:12;;;;;;;2.25;1.67;;;;;;;;;;6203836;28;20118;-69
2022/08/15 03:55:14;;;;;;;2.15;1.40;;;;;;;;;;6205246;28;20062;-69
2022/08/15 03:58:17;;;;;;;1.88;1.50;;;;;;;;;;6207261;28;20057;-71
2022/08/15 04:01:21;;;;;;;2.22;1.40;;;;;;;;;;6203893;28;20046;-69
2022/08/15 04:04:22;;;;;;;1.58;1.40;;;;;;;;;;6204422;28;20105;-69
2022/08/15 04:07:24;;;;;;;2.28;1.52;;;;;;;;;;6205964;28;20096;-67
2022/08/15 04:10:25;;;;;;;2.70;1.70;;;;;;;;;;6205988;28;20109;-70
2022/08/15 04:13:29;;;;;;;5.43;1.45;;;;;;;;;;6206016;28;20790;-69
2022/08/15 04:16:31;;;;;;;2.22;1.38;;;;;;;;;;6206071;28;20050;-69
2022/08/15 04:19:32;;;;;;;2.97;1.33;;;;;;;;;;6204463;28;20117;-70
2022/08/15 04:22:36;;;;;;;2.78;1.27;;;;;;;;;;6206072;28;20056;-68
2022/08/15 04:25:38;;;;;;;;;;;;;;;;;;6205118;28;20345;-67
2022/08/15 04:28:42;;;;;;;2.05;1.50;;;;;;;;;;6205214;28;19917;-67
2022/08/15 04:31:43;;;;;;;;;;;;;;;;;;6205785;28;20122;-67
2022/08/15 04:34:45;;;;;;;2.28;1.48;;;;;;;;;;6204507;28;19965;-67
2022/08/15 04:37:47;;;;;;;5.30;1.50;;;;;;;;;;6204441;28;20092;-68
2022/08/15 04:40:49;;;;;;;2.83;1.65;;;;;;;;;;6207464;28;20058;-69
2022/08/15 04:43:52;;;;;;;2.95;1.83;;;;;;;;;;6204711;28;20046;-68
2022/08/15 04:46:54;;;;;;;2.28;1.40;;;;;;;;;;6204349;28;20220;-68
2022/08/15 04:49:56;;;;;;;2.65;1.52;;;;;;;;;;6204301;28;20053;-69
2022/08/15 04:52:58;;;;;;;2.72;1.60;;;;;;;;;;6204889;28;20054;-64
2022/08/15 04:56:01;;;;;;;2.60;1.90;;;;;;;;;;6202508;28;20046;-67
2022/08/15 04:59:04;;;;;;;2.20;1.67;;;;;;;;;;6203864;28;20317;-68
2022/08/15 05:02:08;;;;;;;3.60;1.60;;;;;;;;;;6204070;28;20054;-68
2022/08/15 05:05:11;;;;;;;2.42;1.45;;;;;;;;;;6204058;28;20226;-70
2022/08/15 05:08:13;;;;;;;3.50;1.70;;;;;;;;;;6204929;28;20197;-68
2022/08/15 05:11:16;;;;;;;3.88;1.98;;;;;;;;;;6204470;28;20199;-68
2022/08/15 05:14:20;;;;;;;2.17;1.75;;;;;;;;;;6203259;28;20249;-67
2022/08/15 05:17:21;;;;;;;2.65;1.65;;;;;;;;;;6204142;28;20061;-68
2022/08/15 05:20:23;;;;;;;4.63;2.33;;;;;;;;;;6205193;28;20050;-67
2022/08/15 05:23:26;;;;;;;5.53;2.00;;;;;;;;;;6203088;28;20046;-70
2022/08/15 05:26:28;;;;;;;3.50;1.80;;;;;;;;;;6202135;28;20061;-68
2022/08/15 05:29:31;;;;;;;2.90;1.70;;;;;;;;;;6204893;28;20062;-70
2022/08/15 05:32:33;;;;;;;4.13;2.08;;;;;;;;;;6203807;28;20062;-70
2022/08/15 05:35:35;;;;;;;3.28;1.70;;;;;;;;;;6202888;28;20082;-68
2022/08/15 05:38:40;;;;;;;4.33;2.00;;;;;;;;;;6203645;28;20042;-68
2022/08/15 05:41:48;;;;;;;7.25;1.98;;;;;;;;;;6203630;28;20065;-67
2022/08/15 05:44:57;;;;;;;2.80;1.52;;;;;;;;;;6203839;28;20056;-68
2022/08/15 05:48:04;;;;;;;1.92;1.73;;;;;;;;;;6203801;28;20050;-69
2022/08/15 05:51:12;;;;;;;1.95;1.35;;;;;;;;;;6203982;28;20057;-68
2022/08/15 05:54:19;;;;;;;2.92;1.73;;;;;;;;;;6203520;28;20054;-68
2022/08/15 05:57:27;;;;;;;2.13;1.80;;;;;;;;;;6204127;28;20050;-70
2022/08/15 06:00:31;;;;;;;4.22;1.65;;;;;;;;;;6200311;28;20064;-67
2022/08/15 06:03:34;;;;;;;3.08;2.20;;;;;;;;;;6203701;28;20049;-68
2022/08/15 06:06:38;;;;;;;1.85;1.63;;;;;;;;;;6203455;28;20093;-67
2022/08/15 06:09:41;;;;;;;4.07;1.83;;;;;;;;;;6204470;28;20280;-67
2022/08/15 06:12:46;;;;;;;3.90;1.92;;;;;;;;;;6203475;28;20058;-70
2022/08/15 06:15:52;;;;;;;3.20;2.10;;;;;;;;;;6206261;28;20049;-70
2022/08/15 06:18:55;;;;;;;2.75;2.20;;;;;;;;;;6207244;28;20050;-68
2022/08/15 06:22:05;;;;;;;3.53;2.08;;;;;;;;;;6208735;28;20051;-68
2022/08/15 06:25:13;;;;;;;3.15;2.53;;;;;;;;;;6208519;28;20046;-67
2022/08/15 06:28:38;;;;;;;2.58;1.80;;;;;;;;;;6207341;28;20121;-68
2022/08/15 06:31:46;;;;;;;3.33;2.20;;;;;;;;;;6206613;28;20054;-70
2022/08/15 06:34:51;;;;;;;3.45;2.03;;;;;;;;;;6208546;28;20061;-70
2022/08/15 06:38:01;;;;;;;2.85;2.17;;;;;;;;;;6208042;28;20116;-70
2022/08/15 06:41:07;;;;;;;2.45;2.25;;;;;;;;;;6207867;28;20050;-70
2022/08/15 06:44:11;;;;;;;4.57;2.50;;;;;;;;;;6208641;28;20046;-71
2022/08/15 06:47:14;;;;;;;5.47;2.40;;;;;;;;;;6208104;28;20128;-71
2022/08/15 06:50:18;;;;;;;;;;;;;;;;;;6208241;28;20053;-69
2022/08/15 06:53:23;;;;;;;5.00;2.63;;;;;;;;;;6205818;28;19921;-71
2022/08/15 06:56:31;;;;;;;3.30;2.20;;;;;;;;;;6206964;28;20482;-70
2022/08/15 06:59:37;;;;;;;4.18;2.55;;;;;;;;;;6204995;28;20049;-71
2022/08/15 07:02:55;;;;;;;2.80;2.40;;;;;;;;;;6206740;28;20058;-70
2022/08/15 07:05:57;;;;;;;4.40;2.50;;;;;;;;;;6207438;28;20328;-71
2022/08/15 07:09:07;;;;;;;4.85;2.50;;;;;;;;;;6208356;28;20057;-72
2022/08/15 07:12:18;;;;;;;5.18;2.33;;;;;;;;;;6207962;28;20046;-71
2022/08/15 07:15:26;;;;;;;3.03;2.72;;;;;;;;;;6206998;28;20471;-72
2022/08/15 07:18:39;;;;;;;3.20;2.20;;;;;;;;;;6208534;28;20046;-71
2022/08/15 07:21:40;;;;;;;4.00;2.38;;;;;;;;;;6206589;28;20049;-71
2022/08/15 07:24:49;;;;;;;2.22;2.03;;;;;;;;;;6206780;28;20054;-71
2022/08/15 07:27:57;;;;;;;4.32;2.22;;;;;;;;;;6206381;28;20329;-71
2022/08/15 07:31:03;;;;;;;2.67;2.35;;;;;;;;;;6205910;28;20057;-71
2022/08/15 07:34:16;;;;;;;4.57;2.35;;;;;;;;;;6207443;28;20384;-71
2022/08/15 07:37:20;;;;;;;2.92;2.10;;;;;;;;;;6206619;28;20096;-71
2022/08/15 07:40:26;;;;;;;4.80;2.30;;;;;;;;;;6206288;28;20329;-71
2022/08/15 07:43:32;;;;;;;4.35;2.17;;;;;;;;;;6205886;28;20121;-71
2022/08/15 07:46:39;;;;;;;2.45;1.98;;;;;;;;;;6207082;28;20265;-71
2022/08/15 07:50:00;;;;;;;2.92;2.17;;;;;;;;;;6206125;28;20277;-71
2022/08/15 07:53:06;;;;;;;4.55;2.08;;;;;;;;;;6205730;28;20049;-71
2022/08/15 07:56:13;;;;;;;2.88;2.20;;;;;;;;;;6205737;28;20054;-71
2022/08/15 07:59:20;;;;;;;2.50;2.30;;;;;;;;;;6204443;28;20355;-71
2022/08/15 08:02:26;;;;;;;4.95;2.25;;;;;;;;;;6206705;28;20093;-71
2022/08/15 08:05:32;;;;;;;2.50;2.00;;;;;;;;;;6206005;28;20069;-71
2022/08/15 08:08:39;;;;;;;2.65;2.28;;;;;;;;;;6207347;28;20054;-71
2022/08/15 08:11:46;;;;;;;4.32;2.28;;;;;;;;;;6205522;28;20085;-71
2022/08/15 08:15:05;;;;;;;3.38;2.20;;;;;;;;;;6206201;28;20046;-71
2022/08/15 08:18:13;;;;;;;5.38;2.60;;;;;;;;;;6206871;28;20042;-71
2022/08/15 08:21:18;;;;;;;3.55;2.30;;;;;;;;;;6204765;28;20057;-71
2022/08/15 08:24:26;;;;;;;5.55;2.10;;;;;;;;;;6205472;28;20119;-71
2022/08/15 08:27:39;;;;;;;2.45;2.25;;;;;;;;;;6205520;28;20045;-71
2022/08/15 08:30:49;;;;;;;4.10;2.55;;;;;;;;;;6204347;28;20049;-70
2022/08/15 08:34:06;;;;;;;3.17;2.70;;;;;;;;;;6205443;28;20112;-70
2022/08/15 08:37:13;;;;;;;3.38;2.40;;;;;;;;;;6204667;28;20054;-71
2022/08/15 08:43:51;;;;;;;3.42;2.70;;;;;;;;;;6188776;28;20050;-71
2022/08/15 08:47:09;;;;;;;3.75;2.60;;;;;;;;;;6203184;28;20058;-72
2022/08/15 08:50:24;;;;;;;3.15;2.85;;;;;;;;;;6204074;28;20054;-70
2022/08/15 08:53:33;;;;;;;6.45;3.63;;;;;;;;;;6203773;28;20065;-71
2022/08/15 08:56:38;;;;;;;9.13;2.95;;;;;;;;;;6204756;28;20050;-71
2022/08/15 08:59:46;;;;;;;2.97;2.50;;;;;;;;;;6201947;28;20058;-70
2022/08/15 09:02:49;;;;;;;3.75;2.00;;;;;;;;;;6205141;28;20277;-71
2022/08/15 09:05:54;;;;;;;2.75;2.50;;;;;;;;;;6203589;28;20092;-70
2022/08/15 09:09:04;;;;;;;3.13;2.90;;;;;;;;;;6204875;28;20277;-72
2022/08/15 09:15:30;;;;;;;2.42;2.22;;;;;;;;;;6204442;28;20054;-70
2022/08/15 09:18:35;;;;;;;2.50;2.30;;;;;;;;;;6204837;28;20081;-71
2022/08/15 09:21:37;;;;;;;5.53;2.55;;;;;;;;;;6204043;28;20038;-72
2022/08/15 09:24:40;;;;;;;5.15;2.80;;;;;;;;;;6203761;28;20046;-72
2022/08/15 09:27:48;;;;;;;5.43;2.65;;;;;;;;;;6204433;28;20042;-70
2022/08/15 09:30:50;;;;;;;4.45;2.83;;;;;;;;;;6202968;28;20052;-71
2022/08/15 09:34:12;;;;;;;3.45;2.38;;;;;;;;;;6204100;28;20050;-71
2022/08/15 09:37:32;;;;;;;5.07;2.97;;;;;;;;;;6204955;28;20330;-70
2022/08/15 09:40:49;;;;;;;3.05;2.40;;;;;;;;;;6203352;28;20054;-71
2022/08/15 09:44:10;;;;;;;2.78;2.58;;;;;;;;;;6202618;28;20125;-71
2022/08/15 09:47:59;;;;;;;3.03;2.65;;;;;;;;;;6202699;28;20105;-71
2022/08/15 09:51:12;;;;;;;2.38;2.17;;;;;;;;;;6190184;28;20053;-71
2022/08/15 09:54:17;;;;;;;4.47;2.65;;;;;;;;;;6202334;28;20096;-71
2022/08/15 09:57:34;;;;;;;4.72;2.33;;;;;;;;;;6204037;28;20054;-72
2022/08/15 10:00:42;;;;;;;4.20;2.67;;;;;;;;;;6202078;28;20088;-71
2022/08/15 10:03:54;;;;;;;3.10;2.40;;;;;;;;;;6203885;28;20337;-71
2022/08/15 10:07:34;;;;;;;3.03;2.17;;;;;;;;;;6205049;28;20046;-71
2022/08/15 10:10:53;;;;;;;2.55;2.20;;;;;;;;;;6203131;28;20120;-71
2022/08/15 10:14:05;;;;;;;3.00;2.13;;;;;;;;;;6203193;28;20050;-71
2022/08/15 10:17:22;;;;;;;;;;;;;;;;;;6203223;28;20337;-71
2022/08/15 10:20:50;;;;;;;3.53;2.35;;;;;;;;;;6203131;28;19918;-70
2022/08/15 10:23:53;;;;;;;3.50;2.30;;;;;;;;;;6202590;28;20092;-71
2022/08/15 10:27:17;;;;;;;2.92;2.20;;;;;;;;;;6203508;28;20049;-71
2022/08/15 10:30:20;;;;;;;2.22;2.03;;;;;;;;;;6202609;28;20052;-72
2022/08/15 10:33:27;;;;;;;2.85;2.00;;;;;;;;;;6203312;28;20092;-70
2022/08/15 10:36:34;;;;;;;2.40;1.83;;;;;;;;;;6204132;28;20122;-71
2022/08/15 10:39:40;;;;;;;3.00;1.90;;;;;;;;;;6201866;28;20981;-71
2022/08/15 10:42:49;;;;;;;3.00;1.90;;;;;;;;;;6203106;28;20062;-71
2022/08/15 10:45:59;;;;;;;2.75;1.90;;;;;;;;;;6205234;28;20042;-71
2022/08/15 10:49:09;;;;;;;3.15;2.42;;;;;;;;;;6202863;28;20062;-72
2022/08/15 10:52:23;;;;;;;3.78;2.20;;;;;;;;;;6202119;28;20097;-71
2022/08/15 10:55:29;;;;;;;4.00;2.28;;;;;;;;;;6202317;28;20052;-71
2022/08/15 10:58:32;;;;;;;4.13;2.08;;;;;;;;;;6201345;28;20368;-72
2022/08/15 11:01:37;;;;;;;2.10;1.90;;;;;;;;;;6205572;28;20058;-71
2022/08/15 11:04:39;;;;;;;2.63;1.88;;;;;;;;;;6207890;28;20057;-71
2022/08/15 11:07:47;;;;;;;2.60;2.30;;;;;;;;;;6207675;28;20077;-71
2022/08/15 11:10:49;;;;;;;2.65;2.40;;;;;;;;;;6208491;28;20054;-71
2022/08/15 11:13:54;;;;;;;4.28;2.38;;;;;;;;;;6206903;28;20121;-71
2022/08/15 11:17:00;;;;;;;2.92;2.15;;;;;;;;;;6206151;28;20277;-71
2022/08/15 11:20:12;;;;;;;2.10;1.90;;;;;;;;;;6208116;28;20946;-72
2022/08/15 11:23:31;;;;;;;4.07;2.40;;;;;;;;;;6206284;28;20132;-71
2022/08/15 11:26:36;;;;;;;2.47;2.10;;;;;;;;;;6207050;28;20100;-71
2022/08/15 11:29:39;;;;;;;3.05;2.17;;;;;;;;;;6206722;28;20049;-72
2022/08/15 11:32:42;;;;;;;3.05;2.45;;;;;;;;;;6206616;28;20269;-71
2022/08/15 11:35:43;;;;;;;2.67;2.15;;;;;;;;;;6207202;28;20049;-71
2022/08/15 11:38:47;;;;;;;2.70;2.20;;;;;;;;;;6206420;28;20054;-71
2022/08/15 11:41:51;;;;;;;2.45;2.13;;;;;;;;;;6205325;28;20096;-70
2022/08/15 11:45:01;;;;;;;5.00;2.10;;;;;;;;;;6206526;28;20062;-71
2022/08/15 11:48:13;;;;;;;5.30;2.35;;;;;;;;;;6205726;28;20237;-70
2022/08/15 11:51:24;;;;;;;3.33;2.20;;;;;;;;;;6206717;28;20053;-71
2022/08/15 11:54:26;;;;;;;4.00;2.30;;;;;;;;;;6206810;28;20058;-70
2022/08/15 11:57:28;;;;;;;5.70;2.70;;;;;;;;;;6207389;28;20154;-70
2022/08/15 12:00:42;;;;;;;4.90;2.35;;;;;;;;;;6203913;28;20241;-70
2022/08/15 12:03:58;;;;;;;4.57;2.40;;;;;;;;;;6205689;28;20046;-70
2022/08/15 12:07:07;;;;;;;4.03;2.45;;;;;;;;;;6207868;28;20046;-70
2022/08/15 12:10:21;;;;;;;4.53;2.38;;;;;;;;;;6207960;28;20050;-70
2022/08/15 12:13:24;;;;;;;2.85;2.45;;;;;;;;;;6204602;28;20117;-70
2022/08/15 12:16:27;;;;;;;3.25;2.40;;;;;;;;;;6205347;28;20046;-70
2022/08/15 12:19:44;;;;;;;5.43;2.83;;;;;;;;;;6206100;28;20269;-70
2022/08/15 12:22:46;;;;;;;2.92;2.50;;;;;;;;;;6205717;28;20342;-70
2022/08/15 12:25:51;;;;;;;3.40;2.33;;;;;;;;;;6204807;28;20336;-70
2022/08/15 12:28:54;;;;;;;4.35;2.78;;;;;;;;;;6202743;28;20148;-71
2022/08/15 12:31:58;;;;;;;4.00;2.70;;;;;;;;;;6204353;28;20046;-70
2022/08/15 12:35:01;;;;;;;5.50;2.50;;;;;;;;;;6205279;28;20241;-70
2022/08/15 12:38:03;;;;;;;2.70;2.42;;;;;;;;;;6205045;28;20065;-70
2022/08/15 12:41:05;;;;;;;2.72;2.50;;;;;;;;;;6204236;28;20093;-71
2022/08/15 12:44:07;;;;;;;;;;;;;;;;;;6207054;28;20061;-70
2022/08/15 12:47:08;;;;;;;2.88;2.63;;;;;;;;;;6205148;28;19917;-71
2022/08/15 12:50:12;;;;;;;3.63;2.83;;;;;;;;;;6204882;28;20109;-71
2022/08/15 12:53:13;;;;;;;4.68;2.33;;;;;;;;;;6204577;28;20158;-71
2022/08/15 12:56:17;;;;;;;3.90;2.42;;;;;;;;;;6204935;28;20113;-71
2022/08/15 12:59:19;;;;;;;3.05;2.30;;;;;;;;;;6202057;28;20058;-71
2022/08/15 13:02:21;;;;;;;3.30;2.63;;;;;;;;;;6206255;28;20054;-71
2022/08/15 13:05:30;;;;;;;2.60;2.40;;;;;;;;;;6205292;28;20054;-71
2022/08/15 13:08:32;;;;;;;3.90;2.60;;;;;;;;;;6205724;28;20108;-69
2022/08/15 13:11:35;;;;;;;4.13;2.60;;;;;;;;;;6203822;28;20054;-73
2022/08/15 13:14:37;;;;;;;4.35;2.50;;;;;;;;;;6205579;28;20054;-70
2022/08/15 13:17:38;;;;;;;2.97;2.67;;;;;;;;;;6209434;28;20046;-71
2022/08/15 13:24:01;;;;;;;2.63;2.42;;;;;;;;;;6202083;28;20329;-71
2022/08/15 13:27:03;;;;;;;3.00;2.40;;;;;;;;;;6203551;28;20046;-71
2022/08/15 13:30:07;;;;;;;3.40;2.67;;;;;;;;;;6203919;28;21651;-71
2022/08/15 13:33:09;;;;;;;3.78;2.47;;;;;;;;;;6202894;28;20054;-71
2022/08/15 13:36:14;;;;;;;4.30;2.60;;;;;;;;;;6203371;28;20348;-70
2022/08/15 13:39:19;;;;;;;2.78;2.58;;;;;;;;;;6204217;28;20050;-71
2022/08/15 13:42:21;;;;;;;4.93;2.80;;;;;;;;;;6204020;28;20050;-71
2022/08/15 13:45:22;;;;;;;;;;;;;;;;;;6203487;28;20265;-71
2022/08/15 13:48:26;;;;;;;3.60;2.50;;;;;;;;;;6204098;28;19960;-71
2022/08/15 13:51:32;;;;;;;2.50;2.30;;;;;;;;;;6202739;28;20074;-71
2022/08/15 13:54:33;;;;;;;2.80;2.60;;;;;;;;;;6203357;28;20062;-70
2022/08/15 13:57:35;;;;;;;;;;;;;;;;;;6205695;28;20061;-71
2022/08/15 14:00:37;;;;;;;5.30;2.70;;;;;;;;;;6201620;28;19952;-71
2022/08/15 14:03:39;;;;;;;5.22;3.13;;;;;;;;;;6202031;28;20105;-71
2022/08/15 14:06:43;;;;;;;3.03;2.65;;;;;;;;;;6203350;28;20065;-70
2022/08/15 14:09:44;;;;;;;4.22;2.88;;;;;;;;;;6204472;28;20057;-71
2022/08/15 14:12:47;;;;;;;4.97;2.70;;;;;;;;;;6204090;28;20066;-70
2022/08/15 14:15:50;;;;;;;4.97;2.88;;;;;;;;;;6202810;28;20058;-71
2022/08/15 14:18:52;;;;;;;3.42;2.72;;;;;;;;;;6205775;28;20054;-70
2022/08/15 14:21:55;;;;;;;;;;;;;;;;;;6203087;28;20125;-70
2022/08/15 14:24:58;;;;;;;3.55;3.00;;;;;;;;;;6202516;28;19925;-70
2022/08/15 14:28:00;;;;;;;6.85;3.30;;;;;;;;;;6203624;28;20080;-70
2022/08/15 14:31:03;;;;;;;4.03;3.35;;;;;;;;;;6203297;28;20166;-70
2022/08/15 14:34:07;;;;;;;4.10;2.92;;;;;;;;;;6203436;28;20126;-70
2022/08/15 14:37:11;;;;;;;3.85;3.00;;;;;;;;;;6207050;28;20348;-70
2022/08/15 14:40:14;;;;;;;4.72;2.85;;;;;;;;;;6207396;28;20301;-70
2022/08/15 14:43:16;;;;;;;4.20;2.90;;;;;;;;;;6207352;28;20288;-70
2022/08/15 14:46:18;;;;;;;4.75;3.20;;;;;;;;;;6208623;28;20065;-71
2022/08/15 14:49:20;;;;;;;3.53;3.00;;;;;;;;;;6207570;28;20100;-71
2022/08/15 14:52:23;;;;;;;;;;;;;;;;;;6209508;28;20054;-71
2022/08/15 14:55:24;;;;;;;5.70;3.17;;;;;;;;;;6206834;28;19934;-71
2022/08/15 14:58:27;;;;;;;5.03;3.08;;;;;;;;;;6206826;28;20054;-71
2022/08/15 15:01:29;;;;;;;4.30;2.92;;;;;;;;;;6206026;28;20050;-70
2022/08/15 15:04:31;;;;;;;5.63;2.75;;;;;;;;;;6206591;28;20058;-70
2022/08/15 15:07:34;;;;;;;3.28;2.83;;;;;;;;;;6207738;28;20065;-70
2022/08/15 15:10:36;;;;;;;3.60;2.80;;;;;;;;;;6206047;28;20054;-71
2022/08/15 15:13:37;;;;;;;5.70;2.78;;;;;;;;;;6207141;28;20042;-71
2022/08/15 15:16:39;;;;;;;;;;;;;;;;;;6208910;28;20341;-71
2022/08/15 15:19:41;;;;;;;3.15;2.80;;;;;;;;;;6205981;28;19926;-71
2022/08/15 15:22:44;;;;;;;4.47;2.95;;;;;;;;;;6207997;28;20065;-70
2022/08/15 15:25:46;;;;;;;3.70;2.50;;;;;;;;;;6206846;28;20372;-71
2022/08/15 15:28:48;;;;;;;3.00;2.70;;;;;;;;;;6205442;28;20046;-71
2022/08/15 15:31:50;;;;;;;4.50;2.90;;;;;;;;;;6205564;28;20080;-72
2022/08/15 15:34:51;;;;;;;3.30;2.97;;;;;;;;;;6206830;28;20305;-71
2022/08/15 15:37:54;;;;;;;4.10;2.70;;;;;;;;;;6206643;28;20379;-70
2022/08/15 15:40:59;;;;;;;3.00;2.70;;;;;;;;;;6206870;28;20050;-71
2022/08/15 15:44:01;;;;;;;3.47;2.80;;;;;;;;;;6207590;28;20233;-70
2022/08/15 15:47:07;;;;;;;4.03;2.75;;;;;;;;;;6205594;28;20054;-71
2022/08/15 15:50:12;;;;;;;3.08;2.78;;;;;;;;;;6205290;28;20233;-71
2022/08/15 15:53:24;;;;;;;4.22;2.88;;;;;;;;;;6114096;28;350517;-72
2022/08/15 15:56:25;;;;;;;;;;;;;;;;;;6123974;29;20284;-70
2022/08/15 15:59:27;;;;;;;3.53;2.60;;;;;;;;;;6121837;29;19930;-70
2022/08/15 16:02:29;;;;;;;4.30;2.83;;;;;;;;;;6124114;29;20048;-71
2022/08/15 16:05:35;;;;;;;5.28;2.90;;;;;;;;;;6125436;29;20071;-72
2022/08/15 16:08:42;;;;;;;3.67;3.15;;;;;;;;;;6128444;29;20066;-71
2022/08/15 16:11:47;;;;;;;4.82;3.22;;;;;;;;;;6123133;29;20099;-71
2022/08/15 16:14:54;;;;;;;5.90;3.10;;;;;;;;;;6126107;29;20048;-70
2022/08/15 16:17:56;;;;;;;3.08;2.50;;;;;;;;;;6145511;28;20047;-70
2022/08/15 16:21:02;;;;;;;4.03;2.85;;;;;;;;;;6147915;28;20148;-70
2022/08/15 16:24:10;;;;;;;4.30;2.88;;;;;;;;;;6147089;28;20056;-70
2022/08/15 16:27:17;;;;;;;6.47;2.95;;;;;;;;;;6146066;28;20126;-71
2022/08/15 16:30:20;;;;;;;4.45;2.90;;;;;;;;;;6149272;28;20058;-70
2022/08/15 16:33:26;;;;;;;5.53;2.80;;;;;;;;;;6149306;28;20051;-71
2022/08/15 16:36:30;;;;;;;3.58;2.78;;;;;;;;;;6146533;28;20047;-71
2022/08/15 16:39:36;;;;;;;3.20;2.60;;;;;;;;;;6146763;28;20055;-70
2022/08/15 16:42:45;;;;;;;3.80;2.90;;;;;;;;;;6148473;28;20055;-71
2022/08/15 16:45:53;;;;;;;3.45;2.90;;;;;;;;;;6149430;28;20043;-70
2022/08/15 16:49:02;;;;;;;4.22;2.83;;;;;;;;;;6147453;28;20107;-70
2022/08/15 16:52:15;;;;;;;5.15;3.00;;;;;;;;;;6146054;28;20087;-71
2022/08/15 16:55:25;;;;;;;4.70;3.30;;;;;;;;;;6146630;28;20234;-72
2022/08/15 16:58:39;;;;;;;5.20;3.00;;;;;;;;;;6145715;28;20084;-71
2022/08/15 17:01:59;;;;;;;2.55;2.35;;;;;;;;;;6146579;28;20090;-71
2022/08/15 17:05:11;;;;;;;5.25;2.63;;;;;;;;;;6149131;28;20242;-71
2022/08/15 17:08:20;;;;;;;5.57;2.92;;;;;;;;;;6148853;28;20051;-70
2022/08/15 17:11:28;;;;;;;6.25;2.90;;;;;;;;;;6145913;28;20055;-71
2022/08/15 17:14:36;;;;;;;7.03;2.55;;;;;;;;;;6145695;28;20067;-70
2022/08/15 17:17:48;;;;;;;4.32;2.70;;;;;;;;;;6147091;28;20043;-70
2022/08/15 17:20:54;;;;;;;4.73;2.97;;;;;;;;;;6147393;28;20051;-71
2022/08/15 17:24:14;;;;;;;2.95;2.65;;;;;;;;;;6144736;28;20067;-70
2022/08/15 17:27:23;;;;;;;4.45;2.60;;;;;;;;;;6145994;28;20065;-68
2022/08/15 17:30:27;;;;;;;3.13;2.83;;;;;;;;;;6147927;28;20126;-70
2022/08/15 17:33:34;;;;;;;5.75;3.05;;;;;;;;;;6146008;28;20048;-71
2022/08/15 17:36:36;;;;;;;3.92;2.90;;;;;;;;;;6142467;28;20348;-71
2022/08/15 17:39:42;;;;;;;7.68;2.92;;;;;;;;;;6145196;28;20055;-70
2022/08/15 17:42:45;;;;;;;3.97;2.83;;;;;;;;;;6145321;28;20059;-70
2022/08/15 17:45:47;;;;;;;3.42;2.55;;;;;;;;;;6150173;28;20062;-70
2022/08/15 17:48:53;;;;;;;3.28;2.67;;;;;;;;;;6148252;28;20055;-71
2022/08/15 17:51:58;;;;;;;3.75;2.90;;;;;;;;;;6147344;28;20302;-70
2022/08/15 17:55:03;;;;;;;4.63;3.08;;;;;;;;;;6149154;28;20059;-70
2022/08/15 17:58:20;;;;;;;3.58;2.78;;;;;;;;;;6146232;28;20051;-70
2022/08/15 18:01:22;;;;;;;3.22;2.60;;;;;;;;;;6147160;28;20067;-70
2022/08/15 18:04:24;;;;;;;4.03;3.05;;;;;;;;;;6145066;28;20048;-71
2022/08/15 18:07:27;;;;;;;4.00;2.83;;;;;;;;;;6143410;28;20747;-70
2022/08/15 18:10:34;;;;;;;10.55;3.30;;;;;;;;;;6146855;28;20086;-70
2022/08/15 18:13:37;;;;;;;4.78;2.92;;;;;;;;;;6149023;28;20051;-72
2022/08/15 18:16:39;;;;;;;4.93;3.30;;;;;;;;;;6151929;28;20063;-70
2022/08/15 18:19:41;;;;;;;5.55;3.08;;;;;;;;;;6151197;28;20092;-71
2022/08/15 18:22:42;;;;;;;4.32;3.22;;;;;;;;;;6151824;28;20051;-72
2022/08/15 18:25:44;;;;;;;3.85;3.00;;;;;;;;;;6150972;28;20216;-72
2022/08/15 18:28:47;;;;;;;4.97;3.38;;;;;;;;;;6150824;28;20318;-72
2022/08/15 18:31:54;;;;;;;5.93;3.45;;;;;;;;;;6149917;28;20094;-71
2022/08/15 18:34:59;;;;;;;7.07;3.38;;;;;;;;;;6150080;28;20639;-72
2022/08/15 18:38:08;;;;;;;3.75;3.08;;;;;;;;;;6150994;28;20055;-70
2022/08/15 18:41:26;;;;;;;5.13;2.92;;;;;;;;;;6149780;28;20069;-71
2022/08/15 18:44:35;;;;;;;4.03;2.88;;;;;;;;;;6154543;28;20073;-71
2022/08/15 18:47:41;;;;;;;3.95;2.83;;;;;;;;;;6150514;28;20106;-71
2022/08/15 18:50:56;;;;;;;5.20;3.13;;;;;;;;;;6152114;28;20122;-71
2022/08/15 18:54:10;;;;;;;7.80;2.95;;;;;;;;;;6149369;28;20119;-71